This is the latest recevied weather packets stored in our database for station/object K6CRS-15. If no packets are shown the sender has not sent any weather packets the latest 10 day(s).
| Time | Temp. | Humidity | Pressure | Rain* | Wind** | Luminosity | Snow |
|---|---|---|---|---|---|---|---|
| 1777792550 | 12.78° C | 95% | 1012.3 hPa | 0 mm | - | - | - |
| 1777788068 | 12.78° C | 93% | 1012.4 hPa | 0 mm | - | - | - |
| 1777774553 | 18.89° C | 71% | 1010.3 hPa | 0 mm | - | - | - |
| 1777773650 | 20° C | 69% | 1010.5 hPa | 0 mm | - | - | - |
| 1777772745 | 20.56° C | 67% | 1010.4 hPa | 0 mm | - | - | - |
| 1777756553 | 24.44° C | 57% | 1012.2 hPa | 0 mm | - | - | - |
| 1777755643 | 25° C | 56% | 1012.4 hPa | 0 mm | - | - | - |
| 1777751165 | 23.89° C | 57% | 1013 hPa | 0 mm | - | - | - |
| 1777744845 | 20° C | 68% | 1014 hPa | 0 mm | - | - | - |
| 1777742145 | 18.33° C | 75% | 1014.4 hPa | 0 mm | - | - | - |
| 1777738549 | 17.22° C | 76% | 1014.6 hPa | 0 mm | - | - | - |
| 1777734942 | 12.78° C | 92% | 1013.8 hPa | 0 mm | - | - | - |
| 1777734084 | 11.67° C | 92% | 1013.7 hPa | 0 mm | - | - | - |
| 1777729550 | 10.56° C | 93% | 1014.2 hPa | 0 mm | - | - | - |
| 1777727745 | 10.56° C | 93% | 1013.9 hPa | 0 mm | - | - | - |
| 1777725968 | 10° C | 91% | 1013.5 hPa | 0 mm | - | - | - |
| 1777717869 | 11.67° C | 89% | 1012.8 hPa | 0 mm | - | - | - |
| 1777713349 | 13.33° C | 82% | 1012.5 hPa | 0 mm | - | - | - |
| 1777706145 | 13.89° C | 80% | 1013.4 hPa | 0 mm | - | - | - |
| 1777702548 | 13.33° C | 86% | 1013.3 hPa | 0 mm | - | - | - |
| 1777700754 | 13.33° C | 87% | 1013.3 hPa | 0 mm | - | - | - |
| 1777698042 | 12.78° C | 88% | 1013.5 hPa | 0 mm | - | - | - |
| 1777695346 | 13.89° C | 87% | 1013.3 hPa | 0 mm | - | - | - |
| 1777694450 | 14.44° C | 85% | 1013.1 hPa | 0 mm | - | - | - |
| 1777693544 | 14.44° C | 84% | 1012.9 hPa | 0 mm | - | - | - |
* Rain latest hour (hover to see other rain measurements)
** Current wind speed in m/s (hover to see current wind gust speed)